createdAt,value
2023-01-15T00:02:25.778Z,14.27
2023-01-15T00:04:55.892Z,14.57
2023-01-15T00:07:24.701Z,18.27
2023-01-15T00:09:54.194Z,20.38
2023-01-15T00:12:22.950Z,19.77
2023-01-15T00:14:51.957Z,16.10
2023-01-15T00:17:20.715Z,19.00
2023-01-15T00:19:49.481Z,20.83
2023-01-15T00:22:19.732Z,17.02
2023-01-15T00:25:06.122Z,16.08
2023-01-15T00:27:40.427Z,16.90
2023-01-15T00:30:12.789Z,16.73
2023-01-15T00:32:41.953Z,16.77
2023-01-15T00:35:15.413Z,16.38
2023-01-15T00:37:45.927Z,15.77
2023-01-15T00:40:16.600Z,16.75
2023-01-15T00:42:53.963Z,16.10
2023-01-15T00:45:24.440Z,17.03
2023-01-15T00:47:53.217Z,16.30
2023-01-15T00:50:22.385Z,16.83
2023-01-15T00:52:52.584Z,16.23
2023-01-15T00:55:21.496Z,16.40
2023-01-15T00:57:50.296Z,16.90
2023-01-15T01:00:19.771Z,18.07
2023-01-15T01:02:48.555Z,16.80
2023-01-15T01:05:17.481Z,16.63
2023-01-15T01:07:46.246Z,17.33
2023-01-15T01:10:18.327Z,17.73
2023-01-15T01:12:48.650Z,17.70
2023-01-15T01:15:17.486Z,16.93
2023-01-15T01:17:46.555Z,16.87
2023-01-15T01:20:18.311Z,16.67
2023-01-15T01:22:50.280Z,17.70
2023-01-15T01:25:20.784Z,15.47
2023-01-15T01:27:50.084Z,17.20
2023-01-15T01:30:19.607Z,15.43
2023-01-15T01:32:48.387Z,16.53
2023-01-15T01:35:17.462Z,14.67
2023-01-15T01:37:51.904Z,14.77
2023-01-15T01:40:22.309Z,16.13
2023-01-15T01:42:51.235Z,14.97
2023-01-15T01:45:27.732Z,16.03
2023-01-15T01:48:03.518Z,15.20
2023-01-15T01:50:36.121Z,15.40
2023-01-15T01:53:09.624Z,14.80
2023-01-15T01:55:40.119Z,13.73
2023-01-15T01:58:13.306Z,14.13
2023-01-15T02:00:49.371Z,13.47
2023-01-15T02:03:21.670Z,14.23
2023-01-15T02:05:56.219Z,14.50
2023-01-15T02:08:25.497Z,13.00
2023-01-15T02:10:57.909Z,12.80
2023-01-15T02:13:35.942Z,12.43
2023-01-15T02:16:14.687Z,13.63
2023-01-15T02:18:52.877Z,12.47
2023-01-15T02:21:38.698Z,12.67
2023-01-15T02:24:18.835Z,12.10
2023-01-15T02:27:17.735Z,12.40
2023-01-15T02:30:02.989Z,10.87
2023-01-15T02:32:42.237Z,11.83
2023-01-15T02:35:20.581Z,10.83
2023-01-15T02:37:58.156Z,11.00
2023-01-15T02:40:29.256Z,10.37
2023-01-15T02:43:01.270Z,10.87
2023-01-15T02:45:36.159Z,10.37
2023-01-15T02:48:13.339Z,10.30
2023-01-15T02:50:47.144Z,13.03
2023-01-15T02:53:23.746Z,11.17
2023-01-15T02:55:58.643Z,13.33
2023-01-15T02:58:34.383Z,10.37
2023-01-15T03:01:10.469Z,9.73
2023-01-15T03:03:48.793Z,9.97
2023-01-15T03:06:29.088Z,10.63
2023-01-15T03:08:57.952Z,10.70
2023-01-15T03:11:26.954Z,9.10
2023-01-15T03:14:05.755Z,10.70
2023-01-15T03:16:38.199Z,12.67
2023-01-15T03:19:21.100Z,8.80
2023-01-15T03:21:57.390Z,8.67
2023-01-15T03:24:34.240Z,11.23
2023-01-15T03:27:03.640Z,11.20
2023-01-15T03:29:39.643Z,10.47
2023-01-15T03:32:08.756Z,10.20
2023-01-15T03:34:47.704Z,14.97
2023-01-15T03:37:16.945Z,9.80
2023-01-15T03:39:46.194Z,11.17
2023-01-15T03:42:30.671Z,9.80
2023-01-15T03:45:11.235Z,9.20
2023-01-15T03:47:53.845Z,10.27
2023-01-15T03:50:32.280Z,10.00
2023-01-15T03:53:11.912Z,10.13
2023-01-15T03:55:53.951Z,9.80
2023-01-15T03:58:31.077Z,9.73
2023-01-15T04:01:04.971Z,9.70
2023-01-15T04:03:36.065Z,9.47
2023-01-15T04:06:07.212Z,10.30
2023-01-15T04:08:46.100Z,9.53
2023-01-15T04:11:14.853Z,8.93
2023-01-15T04:13:43.694Z,9.90
2023-01-15T04:16:15.060Z,12.23
2023-01-15T04:18:43.795Z,9.73
2023-01-15T04:21:12.595Z,9.33
2023-01-15T04:23:41.305Z,9.80
2023-01-15T04:26:10.071Z,10.03
2023-01-15T04:28:38.797Z,10.67
2023-01-15T04:31:09.360Z,10.00
2023-01-15T04:33:42.340Z,9.73
2023-01-15T04:36:12.055Z,11.90
2023-01-15T04:38:42.187Z,8.90
2023-01-15T04:41:29.573Z,8.07
2023-01-15T04:44:09.379Z,10.53
2023-01-15T04:46:41.389Z,10.17
2023-01-15T04:49:14.844Z,9.33
2023-01-15T04:51:44.647Z,8.40
2023-01-15T04:54:16.632Z,11.07
2023-01-15T04:56:48.689Z,9.10
2023-01-15T04:59:18.960Z,8.97
2023-01-15T05:02:02.009Z,11.03
2023-01-15T05:04:33.768Z,9.00
2023-01-15T05:07:04.001Z,8.30
2023-01-15T05:09:33.583Z,9.70
2023-01-15T05:12:02.704Z,7.70
2023-01-15T05:14:31.638Z,8.00
2023-01-15T05:17:00.646Z,9.30
2023-01-15T05:19:29.513Z,8.10
2023-01-15T05:21:59.797Z,8.80
2023-01-15T05:24:28.618Z,7.30
2023-01-15T05:26:58.276Z,9.93
2023-01-15T05:29:27.037Z,8.43
2023-01-15T05:31:56.017Z,9.37
2023-01-15T05:34:24.852Z,9.83
2023-01-15T05:36:53.532Z,8.67
2023-01-15T05:39:23.824Z,7.60
2023-01-15T05:41:53.304Z,8.07
2023-01-15T05:44:26.515Z,9.27
2023-01-15T05:47:05.873Z,9.27
2023-01-15T05:49:36.432Z,8.23
2023-01-15T05:52:08.358Z,8.00
2023-01-15T05:54:39.800Z,8.50
2023-01-15T05:57:11.408Z,7.50
2023-01-15T05:59:41.367Z,8.63
2023-01-15T06:02:10.302Z,8.73
2023-01-15T06:04:39.048Z,8.20
2023-01-15T06:07:07.905Z,7.50
2023-01-15T06:09:38.171Z,8.03
2023-01-15T06:12:07.608Z,7.07
2023-01-15T06:14:36.465Z,7.50
2023-01-15T06:17:05.153Z,6.73
2023-01-15T06:19:33.918Z,7.67
2023-01-15T06:22:03.885Z,13.67
2023-01-15T06:24:32.667Z,6.90
2023-01-15T06:27:07.871Z,7.17
2023-01-15T06:29:36.561Z,7.90
2023-01-15T06:32:05.977Z,7.40
2023-01-15T06:34:34.810Z,6.37
2023-01-15T06:37:03.803Z,6.67
2023-01-15T06:39:32.561Z,9.60
2023-01-15T06:42:18.580Z,6.87
2023-01-15T06:45:06.108Z,7.03
2023-01-15T06:47:34.898Z,8.43
2023-01-15T06:50:03.686Z,6.63
2023-01-15T06:52:32.399Z,6.27
2023-01-15T06:55:01.379Z,8.23
2023-01-15T06:57:30.141Z,6.67
2023-01-15T07:00:00.321Z,7.30
2023-01-15T07:02:29.235Z,6.77
2023-01-15T07:04:58.185Z,7.93
2023-01-15T07:07:29.980Z,15.93
2023-01-15T07:09:58.801Z,7.73
2023-01-15T07:12:27.824Z,11.17
2023-01-15T07:14:56.562Z,15.43
2023-01-15T07:17:26.764Z,22.03
2023-01-15T07:19:55.492Z,10.43
2023-01-15T07:22:24.333Z,8.07
2023-01-15T07:24:53.320Z,7.40
2023-01-15T07:27:22.154Z,7.53
2023-01-15T07:29:52.217Z,7.40
2023-01-15T07:32:21.287Z,7.60
2023-01-15T07:34:51.535Z,8.87
2023-01-15T07:37:20.282Z,8.67
2023-01-15T07:39:49.240Z,10.53
2023-01-15T07:42:35.186Z,22.40
2023-01-15T07:45:21.252Z,11.43
2023-01-15T07:48:19.223Z,10.40
2023-01-15T07:50:49.430Z,14.73
2023-01-15T07:53:19.455Z,11.17
2023-01-15T07:55:48.531Z,10.10
2023-01-15T07:58:17.532Z,13.57
2023-01-15T08:00:46.492Z,9.47
2023-01-15T08:03:15.354Z,11.57
2023-01-15T08:05:44.345Z,9.33
2023-01-15T08:08:18.590Z,9.97
2023-01-15T08:11:01.334Z,10.03
2023-01-15T08:13:47.604Z,9.57
2023-01-15T08:16:16.565Z,13.27
2023-01-15T08:18:46.793Z,12.63
2023-01-15T08:21:16.819Z,15.33
2023-01-15T08:23:47.744Z,19.43
2023-01-15T08:26:16.469Z,10.70
2023-01-15T08:28:45.333Z,12.17
2023-01-15T08:31:14.317Z,10.30
2023-01-15T08:33:43.250Z,9.93
2023-01-15T08:36:12.236Z,10.20
2023-01-15T08:38:41.120Z,11.97
2023-01-15T08:41:11.623Z,10.33
2023-01-15T08:43:40.408Z,13.27
2023-01-15T08:46:11.886Z,11.43
2023-01-15T08:48:40.805Z,10.57
2023-01-15T08:51:12.354Z,12.93
2023-01-15T08:53:41.305Z,10.73
2023-01-15T08:56:15.010Z,13.53
2023-01-15T08:58:44.105Z,12.93
2023-01-15T09:01:16.120Z,14.93
2023-01-15T09:03:45.422Z,11.70
2023-01-15T09:06:14.776Z,11.47
2023-01-15T09:08:43.542Z,11.67
2023-01-15T09:11:14.154Z,13.33
2023-01-15T09:13:44.400Z,13.00
2023-01-15T09:16:13.398Z,13.27
2023-01-15T09:18:42.128Z,14.87
2023-01-15T09:21:11.365Z,14.30
2023-01-15T09:23:40.290Z,17.90
2023-01-15T09:26:09.925Z,23.67
2023-01-15T09:28:40.133Z,16.77
2023-01-15T09:31:09.144Z,13.77
2023-01-15T09:33:38.027Z,13.50
2023-01-15T09:36:08.462Z,12.73
2023-01-15T09:38:38.066Z,17.57
2023-01-15T09:41:34.539Z,14.07
2023-01-15T09:44:21.696Z,14.60
2023-01-15T09:47:04.923Z,13.60
2023-01-15T09:49:59.092Z,16.80
2023-01-15T09:52:48.080Z,16.63
2023-01-15T09:55:21.299Z,15.17
2023-01-15T09:57:56.715Z,14.97
2023-01-15T10:00:29.433Z,17.73
2023-01-15T10:03:06.858Z,13.33
2023-01-15T10:05:43.519Z,23.23
2023-01-15T10:08:21.100Z,50.80
2023-01-15T10:10:55.719Z,27.40
2023-01-15T10:13:38.013Z,22.40
2023-01-15T10:16:10.093Z,22.70
2023-01-15T10:18:42.851Z,15.87
2023-01-15T10:21:31.709Z,19.07
2023-01-15T10:24:08.398Z,23.47
2023-01-15T10:26:40.696Z,22.87
2023-01-15T10:29:22.665Z,16.37
2023-01-15T10:31:55.465Z,13.03
2023-01-15T10:34:59.215Z,15.20
2023-01-15T10:37:35.053Z,13.67
2023-01-15T10:40:30.314Z,13.17
2023-01-15T10:43:12.326Z,14.60
2023-01-15T10:45:48.000Z,18.23
2023-01-15T10:48:30.057Z,15.47
2023-01-15T10:51:05.231Z,35.27
2023-01-15T10:53:45.401Z,14.73
2023-01-15T10:56:29.389Z,15.20
2023-01-15T10:59:12.362Z,17.50
2023-01-15T11:01:42.273Z,16.77
2023-01-15T11:04:14.537Z,15.37
2023-01-15T11:06:43.514Z,13.33
2023-01-15T11:09:23.657Z,14.50
2023-01-15T11:12:15.769Z,13.57
2023-01-15T11:15:04.039Z,16.00
2023-01-15T11:17:56.536Z,13.40
2023-01-15T11:20:33.436Z,12.67
2023-01-15T11:23:11.515Z,15.20
2023-01-15T11:25:50.022Z,13.87
2023-01-15T11:28:21.357Z,15.43
2023-01-15T11:30:56.398Z,14.00
2023-01-15T11:33:28.072Z,14.87
2023-01-15T11:36:00.597Z,15.37
2023-01-15T11:38:31.514Z,13.73
2023-01-15T11:41:05.537Z,16.63
2023-01-15T11:43:51.632Z,15.87
2023-01-15T11:46:47.724Z,14.57
2023-01-15T11:49:39.807Z,14.87
2023-01-15T11:52:15.537Z,12.83
2023-01-15T11:54:49.931Z,16.17
2023-01-15T11:57:29.555Z,15.57
2023-01-15T11:59:59.595Z,14.87
2023-01-15T12:02:38.564Z,15.03
2023-01-15T12:05:16.800Z,17.67
2023-01-15T12:07:49.286Z,14.93
2023-01-15T12:10:54.393Z,14.87
2023-01-15T12:13:36.176Z,15.53
2023-01-15T12:16:18.651Z,14.77
2023-01-15T12:19:01.283Z,15.70
2023-01-15T12:22:14.316Z,16.00
2023-01-15T12:25:18.597Z,17.83
2023-01-15T12:28:00.687Z,16.13
2023-01-15T12:30:44.788Z,17.00
2023-01-15T12:33:29.861Z,18.37
2023-01-15T12:36:08.188Z,16.00
2023-01-15T12:38:52.199Z,19.33
2023-01-15T12:41:50.076Z,17.40
2023-01-15T12:44:42.599Z,19.40
2023-01-15T12:47:20.189Z,23.67
2023-01-15T12:49:54.848Z,22.07
2023-01-15T12:52:33.417Z,18.60
2023-01-15T12:55:14.588Z,22.17
2023-01-15T12:57:50.736Z,19.67
2023-01-15T13:00:26.126Z,20.87
2023-01-15T13:03:16.446Z,24.20
2023-01-15T13:05:53.577Z,21.17
2023-01-15T13:08:30.446Z,23.50
2023-01-15T13:10:59.425Z,23.40
2023-01-15T13:13:41.568Z,25.13
2023-01-15T13:16:19.610Z,23.13
2023-01-15T13:19:06.566Z,20.90
2023-01-15T13:21:39.855Z,26.63
2023-01-15T13:24:42.683Z,35.67
2023-01-15T13:27:35.407Z,22.60
2023-01-15T13:30:27.722Z,26.50
2023-01-15T13:33:06.195Z,24.77
2023-01-15T13:35:41.686Z,24.97
2023-01-15T13:38:21.386Z,27.33
2023-01-15T13:40:54.198Z,27.90
2023-01-15T13:43:36.105Z,29.13
2023-01-15T13:46:11.585Z,26.30
2023-01-15T13:48:47.631Z,26.47
2023-01-15T13:51:30.594Z,26.37
2023-01-15T13:54:02.199Z,24.60
2023-01-15T13:56:33.528Z,30.80
2023-01-15T13:59:05.441Z,29.27
2023-01-15T14:01:38.081Z,24.67
2023-01-15T14:04:15.633Z,25.80
2023-01-15T14:06:47.006Z,28.87
2023-01-15T14:09:29.640Z,39.10
2023-01-15T14:12:17.724Z,32.57
2023-01-15T14:15:09.418Z,27.93
2023-01-15T14:18:23.949Z,28.27
2023-01-15T14:21:21.264Z,27.50
2023-01-15T14:24:35.068Z,26.43
2023-01-15T14:27:15.617Z,22.50
2023-01-15T14:30:11.978Z,24.23
2023-01-15T14:33:01.936Z,25.00
2023-01-15T14:35:41.297Z,24.60
2023-01-15T14:38:19.404Z,24.53
2023-01-15T14:41:00.874Z,24.33
2023-01-15T14:43:34.983Z,23.57
2023-01-15T14:46:22.015Z,25.53
2023-01-15T14:48:50.933Z,22.77
2023-01-15T14:51:28.850Z,24.17
2023-01-15T14:54:03.937Z,20.73
2023-01-15T14:56:37.165Z,22.77
2023-01-15T14:59:16.718Z,21.40
2023-01-15T15:01:52.526Z,24.00
2023-01-15T15:04:35.444Z,23.30
2023-01-15T15:07:13.096Z,23.67
2023-01-15T15:09:46.725Z,22.97
2023-01-15T15:12:39.793Z,22.80
2023-01-15T15:15:18.214Z,21.73
2023-01-15T15:18:07.777Z,23.40
2023-01-15T15:20:52.732Z,22.37
2023-01-15T15:23:31.586Z,23.38
2023-01-15T15:26:03.689Z,27.33
2023-01-15T15:28:32.645Z,23.00
2023-01-15T15:31:02.828Z,21.93
2023-01-15T15:33:40.953Z,25.53
2023-01-15T15:36:10.762Z,25.40
2023-01-15T15:38:45.315Z,21.83
2023-01-15T15:41:15.339Z,21.33
2023-01-15T15:44:14.815Z,23.97
2023-01-15T15:47:08.931Z,22.43
2023-01-15T15:49:41.434Z,25.25
2023-01-15T15:52:23.164Z,22.43
2023-01-15T15:55:08.379Z,25.38
2023-01-15T15:57:40.075Z,21.80
2023-01-15T16:00:21.193Z,22.07
2023-01-15T16:02:50.404Z,21.60
2023-01-15T16:05:26.722Z,22.42
2023-01-15T16:07:56.920Z,20.30
2023-01-15T16:10:32.696Z,20.63
2023-01-15T16:13:05.760Z,22.53
2023-01-15T16:15:41.086Z,19.75
2023-01-15T16:18:23.861Z,19.77
2023-01-15T16:20:53.456Z,21.83
2023-01-15T16:23:25.104Z,23.17
2023-01-15T16:26:04.522Z,20.65
2023-01-15T16:28:42.355Z,21.70
2023-01-15T16:31:13.061Z,19.95
2023-01-15T16:33:42.208Z,18.75
2023-01-15T16:36:11.499Z,21.08
2023-01-15T16:38:44.080Z,19.57
2023-01-15T16:41:27.821Z,21.25
2023-01-15T16:44:00.024Z,20.77
2023-01-15T16:46:33.014Z,23.85
2023-01-15T16:49:28.003Z,25.20
2023-01-15T16:51:58.468Z,22.70
2023-01-15T16:54:45.617Z,23.17
2023-01-15T16:57:35.378Z,21.37
2023-01-15T17:00:27.198Z,25.50
2023-01-15T17:02:57.012Z,22.23
2023-01-15T17:05:27.400Z,23.67
2023-01-15T17:07:57.703Z,24.43
2023-01-15T17:10:29.870Z,23.25
2023-01-15T17:13:00.693Z,26.35
2023-01-15T17:15:47.664Z,23.65
2023-01-15T17:18:30.198Z,22.75
2023-01-15T17:21:01.281Z,25.10
2023-01-15T17:23:38.904Z,26.88
2023-01-15T17:26:12.210Z,26.67
2023-01-15T17:28:42.778Z,25.90
2023-01-15T17:31:25.509Z,25.47
2023-01-15T17:33:54.722Z,26.45
2023-01-15T17:36:26.922Z,25.38
2023-01-15T17:38:56.749Z,25.67
2023-01-15T17:41:26.092Z,23.52
2023-01-15T17:43:56.281Z,24.48
2023-01-15T17:46:25.462Z,24.45
2023-01-15T17:48:54.207Z,23.83
2023-01-15T17:51:23.064Z,28.95
2023-01-15T17:53:51.993Z,30.57
2023-01-15T17:56:38.278Z,31.70
2023-01-15T17:59:27.373Z,32.00
2023-01-15T18:02:13.987Z,34.83
2023-01-15T18:05:03.903Z,28.70
2023-01-15T18:07:39.999Z,27.42
2023-01-15T18:10:11.717Z,28.45
2023-01-15T18:12:40.456Z,22.70
2023-01-15T18:15:12.020Z,19.65
2023-01-15T18:17:40.730Z,18.20
2023-01-15T18:20:11.659Z,24.47
2023-01-15T18:22:40.405Z,19.15
2023-01-15T18:25:12.160Z,13.35
2023-01-15T18:27:43.440Z,11.35
2023-01-15T18:30:17.306Z,11.55
2023-01-15T18:32:46.613Z,12.53
2023-01-15T18:35:15.997Z,11.70
2023-01-15T18:37:44.754Z,9.33
2023-01-15T18:40:14.696Z,9.05
2023-01-15T18:43:01.051Z,9.00
2023-01-15T18:45:48.580Z,9.57
2023-01-15T18:48:17.429Z,9.38
2023-01-15T18:50:46.876Z,9.73
2023-01-15T18:53:16.070Z,9.80
2023-01-15T18:55:44.992Z,9.07
2023-01-15T18:58:13.693Z,8.35
2023-01-15T19:00:43.969Z,8.80
2023-01-15T19:03:12.762Z,8.30
2023-01-15T19:05:41.541Z,9.63
2023-01-15T19:08:10.308Z,8.57
2023-01-15T19:10:39.046Z,8.38
2023-01-15T19:13:07.877Z,8.27
2023-01-15T19:15:54.381Z,8.43
2023-01-15T19:18:42.805Z,8.18
2023-01-15T19:21:12.981Z,8.38
2023-01-15T19:23:41.749Z,7.45
2023-01-15T19:26:10.490Z,8.88
2023-01-15T19:28:39.488Z,7.43
2023-01-15T19:31:27.556Z,7.30
2023-01-15T19:34:31.095Z,7.72
2023-01-15T19:36:48.276Z,7.13
2023-01-15T19:39:17.786Z,7.10
2023-01-15T19:42:04.576Z,7.07
2023-01-15T19:44:50.884Z,5.75
2023-01-15T19:47:44.862Z,5.20
2023-01-15T19:50:22.375Z,5.50
2023-01-15T19:52:53.798Z,5.38
2023-01-15T19:55:25.988Z,4.93
2023-01-15T19:58:00.125Z,9.82
2023-01-15T20:00:30.724Z,6.20
2023-01-15T20:03:00.354Z,7.53
2023-01-15T20:05:33.138Z,6.97
2023-01-15T20:08:02.075Z,7.25
2023-01-15T20:10:31.942Z,5.25
2023-01-15T20:13:18.275Z,4.43
2023-01-15T20:15:47.208Z,4.82
2023-01-15T20:18:17.364Z,3.92
2023-01-15T20:20:47.726Z,4.60
2023-01-15T20:23:16.589Z,3.90
2023-01-15T20:25:50.739Z,4.00
2023-01-15T20:28:19.899Z,3.92
2023-01-15T20:30:48.749Z,3.63
2023-01-15T20:33:17.734Z,3.97
2023-01-15T20:35:48.991Z,4.35
2023-01-15T20:38:19.028Z,6.70
2023-01-15T20:40:47.850Z,4.20
2023-01-15T20:43:34.254Z,5.05
2023-01-15T20:46:12.498Z,4.75
2023-01-15T20:48:58.903Z,4.22
2023-01-15T20:51:29.155Z,3.90
2023-01-15T20:53:59.164Z,3.88
2023-01-15T20:56:28.087Z,4.53
2023-01-15T20:58:58.406Z,14.40
2023-01-15T21:01:28.732Z,5.72
2023-01-15T21:03:57.831Z,9.65
2023-01-15T21:06:26.827Z,4.18
2023-01-15T21:08:56.937Z,3.60
2023-01-15T21:11:25.949Z,3.78
2023-01-15T21:13:54.758Z,3.03
2023-01-15T21:16:23.548Z,3.50
2023-01-15T21:18:52.401Z,3.30
2023-01-15T21:21:22.283Z,2.38
2023-01-15T21:23:51.315Z,2.50
2023-01-15T21:26:21.464Z,2.45
2023-01-15T21:28:53.584Z,2.65
2023-01-15T21:31:22.941Z,2.33
2023-01-15T21:33:54.696Z,2.05
2023-01-15T21:36:24.482Z,2.00
2023-01-15T21:38:54.988Z,2.20
2023-01-15T21:41:46.023Z,2.05
2023-01-15T21:44:32.208Z,2.20
2023-01-15T21:47:03.205Z,2.00
2023-01-15T21:49:33.515Z,1.90
2023-01-15T21:52:05.010Z,1.55
2023-01-15T21:54:34.415Z,1.80
2023-01-15T21:57:04.793Z,1.67
2023-01-15T21:59:33.598Z,1.60
2023-01-15T22:02:04.224Z,1.50
2023-01-15T22:04:37.110Z,1.83
2023-01-15T22:07:05.906Z,1.75
2023-01-15T22:09:34.627Z,1.88
2023-01-15T22:12:05.902Z,2.03
2023-01-15T22:14:35.389Z,2.47
2023-01-15T22:17:06.692Z,2.40
2023-01-15T22:19:36.066Z,1.65
2023-01-15T22:22:08.750Z,1.35
2023-01-15T22:24:41.190Z,1.60
2023-01-15T22:27:17.560Z,1.10
2023-01-15T22:29:46.305Z,2.10
2023-01-15T22:32:17.265Z,0.98
2023-01-15T22:34:48.060Z,1.00
2023-01-15T22:37:16.840Z,1.10
2023-01-15T22:39:46.643Z,0.80
2023-01-15T22:42:27.475Z,0.90
2023-01-15T22:44:59.872Z,0.88
2023-01-15T22:47:29.733Z,0.80
2023-01-15T22:49:58.660Z,0.77
2023-01-15T22:52:27.655Z,1.02
2023-01-15T22:54:56.421Z,0.80
2023-01-15T22:57:26.520Z,1.10
2023-01-15T22:59:55.309Z,0.82
2023-01-15T23:02:38.439Z,0.85
2023-01-15T23:05:09.009Z,0.80
2023-01-15T23:07:40.468Z,1.10
2023-01-15T23:10:14.475Z,1.23
2023-01-15T23:12:45.087Z,1.00
2023-01-15T23:15:16.328Z,1.10
2023-01-15T23:17:45.258Z,0.82
2023-01-15T23:20:15.304Z,0.90
2023-01-15T23:22:44.030Z,1.00
2023-01-15T23:25:12.844Z,1.05
2023-01-15T23:27:41.604Z,1.83
2023-01-15T23:30:14.146Z,1.17
2023-01-15T23:32:42.957Z,0.90
2023-01-15T23:35:11.961Z,0.90
2023-01-15T23:37:40.721Z,1.20
2023-01-15T23:40:11.390Z,1.20
2023-01-15T23:42:57.389Z,1.30
2023-01-15T23:45:44.970Z,1.33
2023-01-15T23:48:13.649Z,1.27
2023-01-15T23:50:42.416Z,1.30
2023-01-15T23:53:11.330Z,1.40
2023-01-15T23:55:40.146Z,1.17
2023-01-15T23:58:09.134Z,1.45
